sensor_id;sensor_type;location;lat;lon;timestamp;P1;durP1;ratioP1;P2;durP2;ratioP2
3939;SDS011;1984;48.312;9.244;2023-04-06T00:01:29;8.90;;;5.77;;
3939;SDS011;1984;48.312;9.244;2023-04-06T00:03:55;8.50;;;5.50;;
3939;SDS011;1984;48.312;9.244;2023-04-06T00:06:20;8.30;;;4.70;;
3939;SDS011;1984;48.312;9.244;2023-04-06T00:08:46;6.30;;;4.83;;
3939;SDS011;1984;48.312;9.244;2023-04-06T00:11:12;8.00;;;5.07;;
3939;SDS011;1984;48.312;9.244;2023-04-06T00:13:37;18.10;;;5.27;;
3939;SDS011;1984;48.312;9.244;2023-04-06T00:16:03;7.27;;;3.93;;
3939;SDS011;1984;48.312;9.244;2023-04-06T00:18:30;5.97;;;4.00;;
3939;SDS011;1984;48.312;9.244;2023-04-06T00:20:56;7.43;;;4.70;;
3939;SDS011;1984;48.312;9.244;2023-04-06T00:23:21;8.70;;;4.73;;
3939;SDS011;1984;48.312;9.244;2023-04-06T00:25:47;4.30;;;3.47;;
3939;SDS011;1984;48.312;9.244;2023-04-06T00:28:13;5.60;;;4.10;;
3939;SDS011;1984;48.312;9.244;2023-04-06T00:30:38;7.40;;;4.50;;
3939;SDS011;1984;48.312;9.244;2023-04-06T00:33:04;5.27;;;3.67;;
3939;SDS011;1984;48.312;9.244;2023-04-06T00:35:30;12.37;;;5.57;;
3939;SDS011;1984;48.312;9.244;2023-04-06T00:37:55;8.90;;;4.90;;
3939;SDS011;1984;48.312;9.244;2023-04-06T00:40:21;8.17;;;5.47;;
3939;SDS011;1984;48.312;9.244;2023-04-06T00:42:47;9.53;;;4.60;;
3939;SDS011;1984;48.312;9.244;2023-04-06T00:45:12;6.70;;;4.70;;
3939;SDS011;1984;48.312;9.244;2023-04-06T00:47:38;8.17;;;4.73;;
3939;SDS011;1984;48.312;9.244;2023-04-06T00:50:04;7.80;;;4.33;;
3939;SDS011;1984;48.312;9.244;2023-04-06T00:52:30;7.80;;;4.50;;
3939;SDS011;1984;48.312;9.244;2023-04-06T00:54:55;12.10;;;6.00;;
3939;SDS011;1984;48.312;9.244;2023-04-06T00:57:21;5.87;;;4.70;;
3939;SDS011;1984;48.312;9.244;2023-04-06T00:59:46;5.53;;;5.00;;
3939;SDS011;1984;48.312;9.244;2023-04-06T01:02:12;4.60;;;3.93;;
3939;SDS011;1984;48.312;9.244;2023-04-06T01:04:38;4.43;;;4.03;;
3939;SDS011;1984;48.312;9.244;2023-04-06T01:07:03;7.20;;;4.77;;
3939;SDS011;1984;48.312;9.244;2023-04-06T01:09:29;8.90;;;4.60;;
3939;SDS011;1984;48.312;9.244;2023-04-06T01:11:56;5.80;;;4.57;;
3939;SDS011;1984;48.312;9.244;2023-04-06T01:14:22;6.40;;;5.00;;
3939;SDS011;1984;48.312;9.244;2023-04-06T01:16:48;8.83;;;5.03;;
3939;SDS011;1984;48.312;9.244;2023-04-06T01:19:14;6.50;;;4.43;;
3939;SDS011;1984;48.312;9.244;2023-04-06T01:21:40;8.20;;;4.97;;
3939;SDS011;1984;48.312;9.244;2023-04-06T01:24:06;4.37;;;3.93;;
3939;SDS011;1984;48.312;9.244;2023-04-06T01:26:33;10.80;;;4.50;;
3939;SDS011;1984;48.312;9.244;2023-04-06T01:28:59;7.90;;;4.67;;
3939;SDS011;1984;48.312;9.244;2023-04-06T01:31:25;5.47;;;3.93;;
3939;SDS011;1984;48.312;9.244;2023-04-06T01:33:51;8.83;;;4.27;;
3939;SDS011;1984;48.312;9.244;2023-04-06T01:36:17;5.10;;;4.60;;
3939;SDS011;1984;48.312;9.244;2023-04-06T01:38:43;6.90;;;3.77;;
3939;SDS011;1984;48.312;9.244;2023-04-06T01:41:09;5.73;;;3.57;;
3939;SDS011;1984;48.312;9.244;2023-04-06T01:43:35;8.07;;;5.10;;
3939;SDS011;1984;48.312;9.244;2023-04-06T01:46:01;6.10;;;4.20;;
3939;SDS011;1984;48.312;9.244;2023-04-06T01:48:26;6.87;;;5.10;;
3939;SDS011;1984;48.312;9.244;2023-04-06T01:50:52;5.43;;;4.50;;
3939;SDS011;1984;48.312;9.244;2023-04-06T01:53:18;7.87;;;4.70;;
3939;SDS011;1984;48.312;9.244;2023-04-06T01:55:44;6.67;;;4.47;;
3939;SDS011;1984;48.312;9.244;2023-04-06T01:58:10;13.23;;;5.20;;
3939;SDS011;1984;48.312;9.244;2023-04-06T02:00:36;7.30;;;4.63;;
3939;SDS011;1984;48.312;9.244;2023-04-06T02:03:01;9.17;;;4.00;;
3939;SDS011;1984;48.312;9.244;2023-04-06T02:05:28;5.27;;;4.43;;
3939;SDS011;1984;48.312;9.244;2023-04-06T02:07:55;8.10;;;4.67;;
3939;SDS011;1984;48.312;9.244;2023-04-06T02:10:21;8.60;;;5.20;;
3939;SDS011;1984;48.312;9.244;2023-04-06T02:12:47;4.97;;;4.47;;
3939;SDS011;1984;48.312;9.244;2023-04-06T02:15:13;5.93;;;4.57;;
3939;SDS011;1984;48.312;9.244;2023-04-06T02:17:39;5.53;;;4.10;;
3939;SDS011;1984;48.312;9.244;2023-04-06T02:20:05;9.80;;;4.33;;
3939;SDS011;1984;48.312;9.244;2023-04-06T02:22:31;4.87;;;3.63;;
3939;SDS011;1984;48.312;9.244;2023-04-06T02:24:57;4.77;;;3.70;;
3939;SDS011;1984;48.312;9.244;2023-04-06T02:27:22;5.20;;;4.37;;
3939;SDS011;1984;48.312;9.244;2023-04-06T02:29:48;4.43;;;4.00;;
3939;SDS011;1984;48.312;9.244;2023-04-06T02:32:13;6.80;;;4.20;;
3939;SDS011;1984;48.312;9.244;2023-04-06T02:34:39;6.33;;;4.70;;
3939;SDS011;1984;48.312;9.244;2023-04-06T02:37:05;6.57;;;3.90;;
3939;SDS011;1984;48.312;9.244;2023-04-06T02:39:30;3.97;;;3.60;;
3939;SDS011;1984;48.312;9.244;2023-04-06T02:41:56;5.37;;;4.03;;
3939;SDS011;1984;48.312;9.244;2023-04-06T02:44:22;5.40;;;4.10;;
3939;SDS011;1984;48.312;9.244;2023-04-06T02:46:47;5.30;;;3.77;;
3939;SDS011;1984;48.312;9.244;2023-04-06T02:49:13;5.50;;;4.40;;
3939;SDS011;1984;48.312;9.244;2023-04-06T02:51:38;8.23;;;5.10;;
3939;SDS011;1984;48.312;9.244;2023-04-06T02:54:04;6.37;;;3.63;;
3939;SDS011;1984;48.312;9.244;2023-04-06T02:56:29;8.30;;;4.67;;
3939;SDS011;1984;48.312;9.244;2023-04-06T02:58:55;5.77;;;4.37;;
3939;SDS011;1984;48.312;9.244;2023-04-06T03:01:21;6.40;;;4.60;;
3939;SDS011;1984;48.312;9.244;2023-04-06T03:03:46;8.80;;;4.50;;
3939;SDS011;1984;48.312;9.244;2023-04-06T03:06:12;7.83;;;4.60;;
3939;SDS011;1984;48.312;9.244;2023-04-06T03:08:37;6.77;;;4.20;;
3939;SDS011;1984;48.312;9.244;2023-04-06T03:11:03;10.50;;;4.83;;
3939;SDS011;1984;48.312;9.244;2023-04-06T03:13:28;11.90;;;5.60;;
3939;SDS011;1984;48.312;9.244;2023-04-06T03:15:54;15.70;;;4.63;;
3939;SDS011;1984;48.312;9.244;2023-04-06T03:18:23;5.70;;;3.47;;
3939;SDS011;1984;48.312;9.244;2023-04-06T03:20:50;10.30;;;4.13;;
3939;SDS011;1984;48.312;9.244;2023-04-06T03:23:18;7.33;;;4.07;;
3939;SDS011;1984;48.312;9.244;2023-04-06T03:25:45;8.90;;;4.17;;
3939;SDS011;1984;48.312;9.244;2023-04-06T03:28:11;6.07;;;4.53;;
3939;SDS011;1984;48.312;9.244;2023-04-06T03:30:36;5.40;;;3.80;;
3939;SDS011;1984;48.312;9.244;2023-04-06T03:33:02;6.10;;;4.37;;
3939;SDS011;1984;48.312;9.244;2023-04-06T03:35:27;4.80;;;4.27;;
3939;SDS011;1984;48.312;9.244;2023-04-06T03:37:53;7.70;;;4.13;;
3939;SDS011;1984;48.312;9.244;2023-04-06T03:40:18;6.23;;;3.70;;
3939;SDS011;1984;48.312;9.244;2023-04-06T03:42:44;7.27;;;4.47;;
3939;SDS011;1984;48.312;9.244;2023-04-06T03:45:09;7.13;;;4.07;;
3939;SDS011;1984;48.312;9.244;2023-04-06T03:47:35;6.07;;;3.80;;
3939;SDS011;1984;48.312;9.244;2023-04-06T03:50:01;6.37;;;4.60;;
3939;SDS011;1984;48.312;9.244;2023-04-06T03:52:27;9.23;;;4.70;;
3939;SDS011;1984;48.312;9.244;2023-04-06T03:54:53;3.83;;;3.43;;
3939;SDS011;1984;48.312;9.244;2023-04-06T03:57:18;8.37;;;3.97;;
3939;SDS011;1984;48.312;9.244;2023-04-06T03:59:44;9.73;;;5.20;;
3939;SDS011;1984;48.312;9.244;2023-04-06T04:02:09;6.33;;;3.70;;
3939;SDS011;1984;48.312;9.244;2023-04-06T04:04:35;8.17;;;4.20;;
3939;SDS011;1984;48.312;9.244;2023-04-06T04:07:00;3.73;;;3.37;;
3939;SDS011;1984;48.312;9.244;2023-04-06T04:09:26;10.03;;;4.43;;
3939;SDS011;1984;48.312;9.244;2023-04-06T04:11:51;7.70;;;4.33;;
3939;SDS011;1984;48.312;9.244;2023-04-06T04:14:17;7.30;;;4.67;;
3939;SDS011;1984;48.312;9.244;2023-04-06T04:16:42;9.40;;;4.67;;
3939;SDS011;1984;48.312;9.244;2023-04-06T04:19:08;7.50;;;4.30;;
3939;SDS011;1984;48.312;9.244;2023-04-06T04:21:41;7.17;;;4.60;;
3939;SDS011;1984;48.312;9.244;2023-04-06T04:24:11;6.47;;;4.03;;
3939;SDS011;1984;48.312;9.244;2023-04-06T04:26:37;8.30;;;5.30;;
3939;SDS011;1984;48.312;9.244;2023-04-06T04:29:03;14.67;;;4.93;;
3939;SDS011;1984;48.312;9.244;2023-04-06T04:31:28;8.57;;;5.27;;
3939;SDS011;1984;48.312;9.244;2023-04-06T04:33:54;10.53;;;5.20;;
3939;SDS011;1984;48.312;9.244;2023-04-06T04:36:20;11.13;;;5.27;;
3939;SDS011;1984;48.312;9.244;2023-04-06T04:38:45;6.60;;;4.90;;
3939;SDS011;1984;48.312;9.244;2023-04-06T04:41:11;6.00;;;4.47;;
3939;SDS011;1984;48.312;9.244;2023-04-06T04:43:36;4.67;;;4.20;;
3939;SDS011;1984;48.312;9.244;2023-04-06T04:46:02;7.10;;;4.50;;
3939;SDS011;1984;48.312;9.244;2023-04-06T04:48:29;6.00;;;3.90;;
3939;SDS011;1984;48.312;9.244;2023-04-06T04:50:54;5.07;;;3.93;;
3939;SDS011;1984;48.312;9.244;2023-04-06T04:53:20;9.50;;;4.90;;
3939;SDS011;1984;48.312;9.244;2023-04-06T04:55:45;14.00;;;5.10;;
3939;SDS011;1984;48.312;9.244;2023-04-06T04:58:11;7.47;;;4.73;;
3939;SDS011;1984;48.312;9.244;2023-04-06T05:00:41;11.00;;;5.30;;
3939;SDS011;1984;48.312;9.244;2023-04-06T05:03:11;10.20;;;4.87;;
3939;SDS011;1984;48.312;9.244;2023-04-06T05:05:43;6.87;;;4.47;;
3939;SDS011;1984;48.312;9.244;2023-04-06T05:08:08;10.33;;;5.30;;
3939;SDS011;1984;48.312;9.244;2023-04-06T05:10:34;6.90;;;4.90;;
3939;SDS011;1984;48.312;9.244;2023-04-06T05:13:00;7.97;;;4.90;;
3939;SDS011;1984;48.312;9.244;2023-04-06T05:15:25;6.00;;;4.07;;
3939;SDS011;1984;48.312;9.244;2023-04-06T05:17:51;6.63;;;4.70;;
3939;SDS011;1984;48.312;9.244;2023-04-06T05:20:16;6.33;;;4.93;;
3939;SDS011;1984;48.312;9.244;2023-04-06T05:22:42;8.30;;;5.00;;
3939;SDS011;1984;48.312;9.244;2023-04-06T05:25:08;11.77;;;4.50;;
3939;SDS011;1984;48.312;9.244;2023-04-06T05:27:33;6.67;;;5.37;;
3939;SDS011;1984;48.312;9.244;2023-04-06T05:29:59;8.53;;;5.20;;
3939;SDS011;1984;48.312;9.244;2023-04-06T05:32:25;6.00;;;4.77;;
3939;SDS011;1984;48.312;9.244;2023-04-06T05:34:51;6.60;;;4.97;;
3939;SDS011;1984;48.312;9.244;2023-04-06T05:37:17;7.60;;;4.80;;
3939;SDS011;1984;48.312;9.244;2023-04-06T05:39:42;7.13;;;5.00;;
3939;SDS011;1984;48.312;9.244;2023-04-06T05:42:08;11.00;;;5.93;;
3939;SDS011;1984;48.312;9.244;2023-04-06T05:44:33;6.37;;;4.70;;
3939;SDS011;1984;48.312;9.244;2023-04-06T05:47:00;6.97;;;4.13;;
3939;SDS011;1984;48.312;9.244;2023-04-06T05:49:25;5.77;;;4.87;;
3939;SDS011;1984;48.312;9.244;2023-04-06T05:51:51;6.83;;;4.00;;
3939;SDS011;1984;48.312;9.244;2023-04-06T05:54:16;12.70;;;5.83;;
3939;SDS011;1984;48.312;9.244;2023-04-06T05:56:42;6.23;;;4.83;;
3939;SDS011;1984;48.312;9.244;2023-04-06T05:59:07;8.13;;;4.63;;
3939;SDS011;1984;48.312;9.244;2023-04-06T06:01:33;8.93;;;6.07;;
3939;SDS011;1984;48.312;9.244;2023-04-06T06:04:00;11.43;;;6.53;;
3939;SDS011;1984;48.312;9.244;2023-04-06T06:06:27;11.50;;;7.20;;
3939;SDS011;1984;48.312;9.244;2023-04-06T06:08:53;16.30;;;5.80;;
3939;SDS011;1984;48.312;9.244;2023-04-06T06:11:19;14.90;;;7.00;;
3939;SDS011;1984;48.312;9.244;2023-04-06T06:13:44;12.87;;;7.80;;
3939;SDS011;1984;48.312;9.244;2023-04-06T06:16:10;13.00;;;7.67;;
3939;SDS011;1984;48.312;9.244;2023-04-06T06:18:35;22.73;;;8.23;;
3939;SDS011;1984;48.312;9.244;2023-04-06T06:21:01;21.93;;;10.70;;
3939;SDS011;1984;48.312;9.244;2023-04-06T06:23:27;38.23;;;12.07;;
3939;SDS011;1984;48.312;9.244;2023-04-06T06:25:53;26.63;;;10.70;;
3939;SDS011;1984;48.312;9.244;2023-04-06T06:28:18;25.03;;;11.33;;
3939;SDS011;1984;48.312;9.244;2023-04-06T06:30:44;26.70;;;10.87;;
3939;SDS011;1984;48.312;9.244;2023-04-06T06:33:11;23.60;;;10.53;;
3939;SDS011;1984;48.312;9.244;2023-04-06T06:35:36;20.23;;;10.10;;
3939;SDS011;1984;48.312;9.244;2023-04-06T06:38:02;21.73;;;10.27;;
3939;SDS011;1984;48.312;9.244;2023-04-06T06:40:27;28.93;;;13.67;;
3939;SDS011;1984;48.312;9.244;2023-04-06T06:42:53;33.03;;;13.47;;
3939;SDS011;1984;48.312;9.244;2023-04-06T06:45:18;30.37;;;13.20;;
3939;SDS011;1984;48.312;9.244;2023-04-06T06:47:45;24.67;;;11.70;;
3939;SDS011;1984;48.312;9.244;2023-04-06T06:50:10;29.97;;;11.83;;
3939;SDS011;1984;48.312;9.244;2023-04-06T06:52:36;26.33;;;11.50;;
3939;SDS011;1984;48.312;9.244;2023-04-06T06:55:02;25.90;;;12.70;;
3939;SDS011;1984;48.312;9.244;2023-04-06T06:57:27;23.90;;;11.50;;
3939;SDS011;1984;48.312;9.244;2023-04-06T06:59:53;18.40;;;10.43;;
3939;SDS011;1984;48.312;9.244;2023-04-06T07:02:18;26.83;;;10.90;;
3939;SDS011;1984;48.312;9.244;2023-04-06T07:04:47;22.60;;;10.57;;
3939;SDS011;1984;48.312;9.244;2023-04-06T07:07:13;18.57;;;10.77;;
3939;SDS011;1984;48.312;9.244;2023-04-06T07:09:39;21.47;;;10.97;;
3939;SDS011;1984;48.312;9.244;2023-04-06T07:12:04;21.67;;;11.07;;
3939;SDS011;1984;48.312;9.244;2023-04-06T07:14:30;21.90;;;10.77;;
3939;SDS011;1984;48.312;9.244;2023-04-06T07:16:55;18.63;;;10.07;;
3939;SDS011;1984;48.312;9.244;2023-04-06T07:19:21;17.53;;;10.83;;
3939;SDS011;1984;48.312;9.244;2023-04-06T07:21:46;18.93;;;11.03;;
3939;SDS011;1984;48.312;9.244;2023-04-06T07:24:14;21.40;;;11.67;;
3939;SDS011;1984;48.312;9.244;2023-04-06T07:26:39;19.87;;;12.17;;
3939;SDS011;1984;48.312;9.244;2023-04-06T07:29:05;17.00;;;10.93;;
3939;SDS011;1984;48.312;9.244;2023-04-06T07:31:30;23.23;;;12.20;;
3939;SDS011;1984;48.312;9.244;2023-04-06T07:33:56;17.70;;;11.33;;
3939;SDS011;1984;48.312;9.244;2023-04-06T07:36:22;21.87;;;11.60;;
3939;SDS011;1984;48.312;9.244;2023-04-06T07:38:47;15.20;;;10.40;;
3939;SDS011;1984;48.312;9.244;2023-04-06T07:41:13;15.50;;;9.20;;
3939;SDS011;1984;48.312;9.244;2023-04-06T07:43:39;17.20;;;9.87;;
3939;SDS011;1984;48.312;9.244;2023-04-06T07:46:05;12.83;;;9.33;;
3939;SDS011;1984;48.312;9.244;2023-04-06T07:48:31;12.80;;;8.17;;
3939;SDS011;1984;48.312;9.244;2023-04-06T07:51:03;14.10;;;9.60;;
3939;SDS011;1984;48.312;9.244;2023-04-06T07:53:29;10.77;;;8.00;;
3939;SDS011;1984;48.312;9.244;2023-04-06T07:55:55;9.87;;;8.00;;
3939;SDS011;1984;48.312;9.244;2023-04-06T07:58:21;9.73;;;6.33;;
3939;SDS011;1984;48.312;9.244;2023-04-06T08:00:47;10.87;;;6.40;;
3939;SDS011;1984;48.312;9.244;2023-04-06T08:03:12;9.13;;;6.50;;
3939;SDS011;1984;48.312;9.244;2023-04-06T08:05:37;9.40;;;5.60;;
3939;SDS011;1984;48.312;9.244;2023-04-06T08:08:03;9.50;;;5.40;;
3939;SDS011;1984;48.312;9.244;2023-04-06T08:10:29;10.30;;;5.83;;
3939;SDS011;1984;48.312;9.244;2023-04-06T08:12:54;6.10;;;4.97;;
3939;SDS011;1984;48.312;9.244;2023-04-06T08:15:20;7.60;;;5.77;;
3939;SDS011;1984;48.312;9.244;2023-04-06T08:17:45;7.77;;;5.37;;
3939;SDS011;1984;48.312;9.244;2023-04-06T08:20:11;11.90;;;5.70;;
3939;SDS011;1984;48.312;9.244;2023-04-06T08:22:36;7.70;;;5.37;;
3939;SDS011;1984;48.312;9.244;2023-04-06T08:25:02;11.83;;;4.93;;
3939;SDS011;1984;48.312;9.244;2023-04-06T08:27:28;5.27;;;4.40;;
3939;SDS011;1984;48.312;9.244;2023-04-06T08:29:54;6.90;;;5.43;;
3939;SDS011;1984;48.312;9.244;2023-04-06T08:32:19;7.10;;;4.90;;
3939;SDS011;1984;48.312;9.244;2023-04-06T08:34:45;6.97;;;4.20;;
3939;SDS011;1984;48.312;9.244;2023-04-06T08:37:11;9.20;;;5.03;;
3939;SDS011;1984;48.312;9.244;2023-04-06T08:39:36;6.07;;;5.00;;
3939;SDS011;1984;48.312;9.244;2023-04-06T08:42:02;7.00;;;4.43;;
3939;SDS011;1984;48.312;9.244;2023-04-06T08:44:28;6.00;;;4.60;;
3939;SDS011;1984;48.312;9.244;2023-04-06T08:46:55;7.53;;;4.27;;
3939;SDS011;1984;48.312;9.244;2023-04-06T08:49:21;6.03;;;4.80;;
3939;SDS011;1984;48.312;9.244;2023-04-06T08:51:46;10.00;;;4.73;;
3939;SDS011;1984;48.312;9.244;2023-04-06T08:54:12;6.00;;;4.50;;
3939;SDS011;1984;48.312;9.244;2023-04-06T08:56:38;7.30;;;4.30;;
3939;SDS011;1984;48.312;9.244;2023-04-06T08:59:04;6.80;;;3.90;;
3939;SDS011;1984;48.312;9.244;2023-04-06T09:01:32;5.90;;;4.53;;
3939;SDS011;1984;48.312;9.244;2023-04-06T09:04:02;6.33;;;4.33;;
3939;SDS011;1984;48.312;9.244;2023-04-06T09:06:34;5.90;;;3.90;;
3939;SDS011;1984;48.312;9.244;2023-04-06T09:09:01;5.43;;;3.93;;
3939;SDS011;1984;48.312;9.244;2023-04-06T09:11:27;3.93;;;3.40;;
3939;SDS011;1984;48.312;9.244;2023-04-06T09:13:54;5.60;;;3.60;;
3939;SDS011;1984;48.312;9.244;2023-04-06T09:16:21;5.07;;;4.23;;
3939;SDS011;1984;48.312;9.244;2023-04-06T09:18:47;3.93;;;3.53;;
3939;SDS011;1984;48.312;9.244;2023-04-06T09:21:15;4.53;;;3.93;;
3939;SDS011;1984;48.312;9.244;2023-04-06T09:23:42;3.60;;;3.10;;
3939;SDS011;1984;48.312;9.244;2023-04-06T09:26:15;6.83;;;3.63;;
3939;SDS011;1984;48.312;9.244;2023-04-06T09:28:42;5.90;;;4.10;;
3939;SDS011;1984;48.312;9.244;2023-04-06T09:31:15;5.40;;;3.37;;
3939;SDS011;1984;48.312;9.244;2023-04-06T09:33:42;4.33;;;3.40;;
3939;SDS011;1984;48.312;9.244;2023-04-06T09:36:09;6.10;;;3.20;;
3939;SDS011;1984;48.312;9.244;2023-04-06T09:38:51;4.33;;;3.10;;
3939;SDS011;1984;48.312;9.244;2023-04-06T09:41:41;9.30;;;3.93;;
3939;SDS011;1984;48.312;9.244;2023-04-06T09:44:07;5.67;;;4.00;;
3939;SDS011;1984;48.312;9.244;2023-04-06T09:46:34;4.77;;;3.43;;
3939;SDS011;1984;48.312;9.244;2023-04-06T09:49:02;5.57;;;3.30;;
3939;SDS011;1984;48.312;9.244;2023-04-06T09:51:35;4.13;;;3.43;;
3939;SDS011;1984;48.312;9.244;2023-04-06T09:54:06;4.93;;;3.80;;
3939;SDS011;1984;48.312;9.244;2023-04-06T09:56:50;4.53;;;4.10;;
3939;SDS011;1984;48.312;9.244;2023-04-06T09:59:28;5.70;;;3.40;;
3939;SDS011;1984;48.312;9.244;2023-04-06T10:02:02;5.53;;;3.83;;
3939;SDS011;1984;48.312;9.244;2023-04-06T10:04:38;5.40;;;3.50;;
3939;SDS011;1984;48.312;9.244;2023-04-06T10:07:14;5.63;;;3.47;;
3939;SDS011;1984;48.312;9.244;2023-04-06T10:09:41;13.73;;;5.10;;
3939;SDS011;1984;48.312;9.244;2023-04-06T10:12:11;4.63;;;3.40;;
3939;SDS011;1984;48.312;9.244;2023-04-06T10:14:37;4.37;;;3.97;;
3939;SDS011;1984;48.312;9.244;2023-04-06T10:17:04;8.10;;;3.90;;
3939;SDS011;1984;48.312;9.244;2023-04-06T10:19:41;4.97;;;3.60;;
3939;SDS011;1984;48.312;9.244;2023-04-06T10:22:16;7.90;;;4.00;;
3939;SDS011;1984;48.312;9.244;2023-04-06T10:24:49;3.70;;;3.30;;
3939;SDS011;1984;48.312;9.244;2023-04-06T10:27:14;3.67;;;3.37;;
3939;SDS011;1984;48.312;9.244;2023-04-06T10:29:41;4.30;;;3.50;;
3939;SDS011;1984;48.312;9.244;2023-04-06T10:32:10;11.30;;;3.93;;
3939;SDS011;1984;48.312;9.244;2023-04-06T10:34:36;3.93;;;3.60;;
3939;SDS011;1984;48.312;9.244;2023-04-06T10:37:14;3.37;;;3.07;;
3939;SDS011;1984;48.312;9.244;2023-04-06T10:39:47;3.90;;;3.30;;
3939;SDS011;1984;48.312;9.244;2023-04-06T10:42:23;5.30;;;3.40;;
3939;SDS011;1984;48.312;9.244;2023-04-06T10:45:04;4.00;;;3.57;;
3939;SDS011;1984;48.312;9.244;2023-04-06T10:47:38;4.50;;;3.33;;
3939;SDS011;1984;48.312;9.244;2023-04-06T10:50:04;4.93;;;3.87;;
3939;SDS011;1984;48.312;9.244;2023-04-06T10:52:30;4.60;;;4.03;;
3939;SDS011;1984;48.312;9.244;2023-04-06T10:54:56;9.50;;;4.43;;
3939;SDS011;1984;48.312;9.244;2023-04-06T10:57:28;6.03;;;4.27;;
3939;SDS011;1984;48.312;9.244;2023-04-06T10:59:55;4.73;;;4.17;;
3939;SDS011;1984;48.312;9.244;2023-04-06T11:02:21;8.80;;;5.57;;
3939;SDS011;1984;48.312;9.244;2023-04-06T11:04:56;5.00;;;4.50;;
3939;SDS011;1984;48.312;9.244;2023-04-06T11:07:25;7.70;;;5.30;;
3939;SDS011;1984;48.312;9.244;2023-04-06T11:09:52;5.60;;;4.80;;
3939;SDS011;1984;48.312;9.244;2023-04-06T11:12:27;4.70;;;3.90;;
3939;SDS011;1984;48.312;9.244;2023-04-06T11:14:57;5.70;;;4.90;;
3939;SDS011;1984;48.312;9.244;2023-04-06T11:17:29;7.20;;;5.50;;
3939;SDS011;1984;48.312;9.244;2023-04-06T11:19:56;6.37;;;4.30;;
3939;SDS011;1984;48.312;9.244;2023-04-06T11:22:23;5.30;;;4.43;;
3939;SDS011;1984;48.312;9.244;2023-04-06T11:24:49;5.87;;;4.80;;
3939;SDS011;1984;48.312;9.244;2023-04-06T11:27:15;6.87;;;4.47;;
3939;SDS011;1984;48.312;9.244;2023-04-06T11:29:41;10.63;;;3.80;;
3939;SDS011;1984;48.312;9.244;2023-04-06T11:32:07;9.37;;;4.43;;
3939;SDS011;1984;48.312;9.244;2023-04-06T11:34:34;8.57;;;4.63;;
3939;SDS011;1984;48.312;9.244;2023-04-06T11:37:02;7.07;;;4.63;;
3939;SDS011;1984;48.312;9.244;2023-04-06T11:39:31;7.77;;;4.00;;
3939;SDS011;1984;48.312;9.244;2023-04-06T11:42:02;5.37;;;4.40;;
3939;SDS011;1984;48.312;9.244;2023-04-06T11:47:04;4.83;;;3.70;;
3939;SDS011;1984;48.312;9.244;2023-04-06T11:49:32;6.20;;;4.03;;
3939;SDS011;1984;48.312;9.244;2023-04-06T11:51:58;5.63;;;4.00;;
3939;SDS011;1984;48.312;9.244;2023-04-06T11:54:35;5.37;;;3.80;;
3939;SDS011;1984;48.312;9.244;2023-04-06T11:57:02;4.37;;;3.53;;
3939;SDS011;1984;48.312;9.244;2023-04-06T11:59:30;6.60;;;4.30;;
3939;SDS011;1984;48.312;9.244;2023-04-06T12:01:58;6.33;;;4.37;;
3939;SDS011;1984;48.312;9.244;2023-04-06T12:04:24;4.20;;;3.77;;
3939;SDS011;1984;48.312;9.244;2023-04-06T12:06:49;4.10;;;3.67;;
3939;SDS011;1984;48.312;9.244;2023-04-06T12:09:16;5.13;;;3.90;;
3939;SDS011;1984;48.312;9.244;2023-04-06T12:11:45;5.03;;;3.47;;
3939;SDS011;1984;48.312;9.244;2023-04-06T12:14:11;6.43;;;4.33;;
3939;SDS011;1984;48.312;9.244;2023-04-06T12:16:37;4.40;;;3.27;;
3939;SDS011;1984;48.312;9.244;2023-04-06T12:19:03;4.57;;;3.70;;
3939;SDS011;1984;48.312;9.244;2023-04-06T12:21:29;5.40;;;3.53;;
3939;SDS011;1984;48.312;9.244;2023-04-06T12:23:56;4.40;;;3.90;;
3939;SDS011;1984;48.312;9.244;2023-04-06T12:26:22;7.17;;;4.27;;
3939;SDS011;1984;48.312;9.244;2023-04-06T12:28:48;6.90;;;3.80;;
3939;SDS011;1984;48.312;9.244;2023-04-06T12:31:14;7.10;;;4.67;;
3939;SDS011;1984;48.312;9.244;2023-04-06T12:33:40;5.60;;;4.13;;
3939;SDS011;1984;48.312;9.244;2023-04-06T12:36:11;4.67;;;3.40;;
3939;SDS011;1984;48.312;9.244;2023-04-06T12:38:37;6.93;;;4.00;;
3939;SDS011;1984;48.312;9.244;2023-04-06T12:41:04;4.93;;;3.93;;
3939;SDS011;1984;48.312;9.244;2023-04-06T12:43:30;7.27;;;3.33;;
3939;SDS011;1984;48.312;9.244;2023-04-06T12:45:56;3.90;;;3.50;;
3939;SDS011;1984;48.312;9.244;2023-04-06T12:48:21;5.10;;;3.87;;
3939;SDS011;1984;48.312;9.244;2023-04-06T12:50:53;7.10;;;3.47;;
3939;SDS011;1984;48.312;9.244;2023-04-06T12:53:22;6.00;;;3.87;;
3939;SDS011;1984;48.312;9.244;2023-04-06T12:55:48;10.30;;;3.90;;
3939;SDS011;1984;48.312;9.244;2023-04-06T12:58:14;7.27;;;4.13;;
3939;SDS011;1984;48.312;9.244;2023-04-06T13:00:40;5.20;;;3.97;;
3939;SDS011;1984;48.312;9.244;2023-04-06T13:03:05;7.97;;;3.63;;
3939;SDS011;1984;48.312;9.244;2023-04-06T13:05:31;9.03;;;4.17;;
3939;SDS011;1984;48.312;9.244;2023-04-06T13:07:56;5.00;;;3.77;;
3939;SDS011;1984;48.312;9.244;2023-04-06T13:10:22;5.40;;;3.23;;
3939;SDS011;1984;48.312;9.244;2023-04-06T13:12:48;8.87;;;3.57;;
3939;SDS011;1984;48.312;9.244;2023-04-06T13:15:13;4.77;;;3.50;;
3939;SDS011;1984;48.312;9.244;2023-04-06T13:17:40;5.77;;;3.80;;
3939;SDS011;1984;48.312;9.244;2023-04-06T13:20:05;5.67;;;4.00;;
3939;SDS011;1984;48.312;9.244;2023-04-06T13:22:31;4.63;;;3.40;;
3939;SDS011;1984;48.312;9.244;2023-04-06T13:24:57;3.60;;;3.30;;
3939;SDS011;1984;48.312;9.244;2023-04-06T13:27:23;10.17;;;3.60;;
3939;SDS011;1984;48.312;9.244;2023-04-06T13:29:48;4.20;;;3.77;;
3939;SDS011;1984;48.312;9.244;2023-04-06T13:32:14;4.30;;;3.40;;
3939;SDS011;1984;48.312;9.244;2023-04-06T13:34:39;5.03;;;3.30;;
3939;SDS011;1984;48.312;9.244;2023-04-06T13:37:09;4.23;;;3.27;;
3939;SDS011;1984;48.312;9.244;2023-04-06T13:39:38;3.60;;;2.90;;
3939;SDS011;1984;48.312;9.244;2023-04-06T13:42:03;4.87;;;4.30;;
3939;SDS011;1984;48.312;9.244;2023-04-06T13:44:29;4.67;;;3.63;;
3939;SDS011;1984;48.312;9.244;2023-04-06T13:46:56;3.40;;;3.10;;
3939;SDS011;1984;48.312;9.244;2023-04-06T13:49:21;3.70;;;3.10;;
3939;SDS011;1984;48.312;9.244;2023-04-06T13:51:47;5.43;;;3.60;;
3939;SDS011;1984;48.312;9.244;2023-04-06T13:54:12;3.00;;;2.80;;
3939;SDS011;1984;48.312;9.244;2023-04-06T13:56:38;3.40;;;3.10;;
3939;SDS011;1984;48.312;9.244;2023-04-06T13:59:03;4.07;;;3.43;;
3939;SDS011;1984;48.312;9.244;2023-04-06T14:01:29;5.60;;;3.50;;
3939;SDS011;1984;48.312;9.244;2023-04-06T14:03:54;3.27;;;2.93;;
3939;SDS011;1984;48.312;9.244;2023-04-06T14:06:20;4.47;;;3.50;;
3939;SDS011;1984;48.312;9.244;2023-04-06T14:08:45;3.73;;;3.07;;
3939;SDS011;1984;48.312;9.244;2023-04-06T14:11:12;3.77;;;2.67;;
3939;SDS011;1984;48.312;9.244;2023-04-06T14:13:38;3.40;;;2.97;;
3939;SDS011;1984;48.312;9.244;2023-04-06T14:16:04;2.60;;;2.40;;
3939;SDS011;1984;48.312;9.244;2023-04-06T14:18:30;4.43;;;3.47;;
3939;SDS011;1984;48.312;9.244;2023-04-06T14:20:56;4.23;;;2.87;;
3939;SDS011;1984;48.312;9.244;2023-04-06T14:23:22;3.17;;;2.73;;
3939;SDS011;1984;48.312;9.244;2023-04-06T14:25:51;3.43;;;2.50;;
3939;SDS011;1984;48.312;9.244;2023-04-06T14:28:25;4.13;;;3.23;;
3939;SDS011;1984;48.312;9.244;2023-04-06T14:30:51;3.27;;;2.97;;
3939;SDS011;1984;48.312;9.244;2023-04-06T14:33:17;6.60;;;3.30;;
3939;SDS011;1984;48.312;9.244;2023-04-06T14:35:42;5.13;;;2.93;;
3939;SDS011;1984;48.312;9.244;2023-04-06T14:38:08;4.10;;;3.20;;
3939;SDS011;1984;48.312;9.244;2023-04-06T14:40:34;6.00;;;3.20;;
3939;SDS011;1984;48.312;9.244;2023-04-06T14:43:01;4.13;;;3.53;;
3939;SDS011;1984;48.312;9.244;2023-04-06T14:45:26;7.20;;;4.00;;
3939;SDS011;1984;48.312;9.244;2023-04-06T14:47:52;4.47;;;3.40;;
3939;SDS011;1984;48.312;9.244;2023-04-06T14:50:17;4.10;;;3.60;;
3939;SDS011;1984;48.312;9.244;2023-04-06T14:52:43;4.57;;;3.50;;
3939;SDS011;1984;48.312;9.244;2023-04-06T14:55:08;3.70;;;3.07;;
3939;SDS011;1984;48.312;9.244;2023-04-06T14:57:34;3.40;;;3.10;;
3939;SDS011;1984;48.312;9.244;2023-04-06T14:59:59;4.37;;;3.10;;
3939;SDS011;1984;48.312;9.244;2023-04-06T15:02:25;3.90;;;3.30;;
3939;SDS011;1984;48.312;9.244;2023-04-06T15:04:51;7.93;;;3.70;;
3939;SDS011;1984;48.312;9.244;2023-04-06T15:07:16;4.20;;;2.80;;
3939;SDS011;1984;48.312;9.244;2023-04-06T15:09:42;2.80;;;2.60;;
3939;SDS011;1984;48.312;9.244;2023-04-06T15:12:07;3.30;;;3.00;;